Time,TemperatureF,DewpointF,PressureIn,WindDirection,WindDirectionDegrees,WindSpeedMPH,WindSpeedGustMPH,Humidity,HourlyPrecipIn,Conditions,Clouds,dailyrainin,SoftwareType,DateUTC
2013-08-11 00:13:00,53.0,44.0,-100.00,North,-999,0.0,0.0,71,-99.99,,,-99.99,,2013-08-11 07:13:00,
2013-08-11 00:34:00,52.0,44.0,-100.00,North,-999,0.0,0.0,74,-99.99,,,-99.99,,2013-08-11 07:34:00,
2013-08-11 00:44:00,51.0,44.0,-100.00,North,-999,0.0,0.0,77,-99.99,,,-99.99,,2013-08-11 07:44:00,
2013-08-11 01:13:00,50.0,44.0,-100.00,North,-999,0.0,0.0,79,-99.99,,,-99.99,,2013-08-11 08:13:00,
2013-08-11 01:23:00,50.0,45.0,-100.00,North,-999,0.0,0.0,82,-99.99,,,-99.99,,2013-08-11 08:23:00,
2013-08-11 01:34:00,49.0,44.0,-100.00,North,-999,0.0,0.0,84,-99.99,,,-99.99,,2013-08-11 08:34:00,
2013-08-11 01:45:00,49.0,45.0,-100.00,North,-999,0.0,0.0,87,-99.99,,,-99.99,,2013-08-11 08:45:00,
2013-08-11 01:57:00,49.0,45.0,-100.00,North,-999,0.0,0.0,87,-99.99,,,-99.99,,2013-08-11 08:57:00,
2013-08-11 02:03:00,48.0,45.0,-100.00,North,-999,0.0,0.0,88,-99.99,,,-99.99,,2013-08-11 09:03:00,
2013-08-11 02:23:00,48.0,46.0,-100.00,North,-999,0.0,0.0,90,-99.99,,,-99.99,,2013-08-11 09:23:00,
2013-08-11 02:34:00,49.0,46.0,-100.00,North,-999,0.0,0.0,90,-99.99,,,-99.99,,2013-08-11 09:34:00,
2013-08-11 03:02:00,49.0,46.0,-100.00,North,-999,0.0,0.0,90,-99.99,,,-99.99,,2013-08-11 10:02:00,
2013-08-11 03:23:00,48.0,46.0,-100.00,North,-999,0.0,0.0,91,-99.99,,,-99.99,,2013-08-11 10:23:00,
2013-08-11 03:33:00,48.0,45.0,-100.00,North,-999,0.0,0.0,91,-99.99,,,-99.99,,2013-08-11 10:33:00,
2013-08-11 03:43:00,48.0,45.0,-100.00,North,-999,0.0,0.0,91,-99.99,,,-99.99,,2013-08-11 10:43:00,
2013-08-11 04:03:00,48.0,45.0,-100.00,North,-999,0.0,0.0,91,-99.99,,,-99.99,,2013-08-11 11:03:00,
2013-08-11 04:12:00,48.0,45.0,-100.00,North,-999,0.0,0.0,91,-99.99,,,-99.99,,2013-08-11 11:12:00,
2013-08-11 04:22:00,48.0,45.0,-100.00,North,-999,0.0,0.0,91,-99.99,,,-99.99,,2013-08-11 11:22:00,
2013-08-11 04:34:00,48.0,45.0,-100.00,North,-999,0.0,0.0,91,-99.99,,,-99.99,,2013-08-11 11:34:00,
2013-08-11 05:04:00,48.0,45.0,-100.00,North,-999,0.0,0.0,91,-99.99,,,-99.99,,2013-08-11 12:04:00,
2013-08-11 05:12:00,48.0,45.0,-100.00,North,-999,0.0,0.0,89,-99.99,,,-99.99,,2013-08-11 12:12:00,
2013-08-11 05:24:00,48.0,45.0,-100.00,North,-999,0.0,0.0,89,-99.99,,,-99.99,,2013-08-11 12:24:00,
2013-08-11 05:33:00,48.0,45.0,-100.00,North,-999,0.0,0.0,89,-99.99,,,-99.99,,2013-08-11 12:33:00,
2013-08-11 05:43:00,47.0,44.0,-100.00,North,-999,0.0,0.0,90,-99.99,,,-99.99,,2013-08-11 12:43:00,
2013-08-11 05:55:00,47.0,44.0,-100.00,North,-999,0.0,0.0,90,-99.99,,,-99.99,,2013-08-11 12:55:00,
2013-08-11 06:02:00,46.0,44.0,-100.00,North,-999,0.0,0.0,91,-99.99,,,-99.99,,2013-08-11 13:02:00,
2013-08-11 06:24:00,46.0,44.0,-100.00,North,-999,0.0,0.0,92,-99.99,,,-99.99,,2013-08-11 13:24:00,
2013-08-11 06:34:00,45.0,43.0,-100.00,North,-999,0.0,0.0,93,-99.99,,,-99.99,,2013-08-11 13:34:00,
2013-08-11 06:44:00,45.0,43.0,-100.00,North,-999,0.0,0.0,94,-99.99,,,-99.99,,2013-08-11 13:44:00,
2013-08-11 06:57:00,45.0,43.0,-100.00,North,-999,0.0,0.0,94,-99.99,,,-99.99,,2013-08-11 13:57:00,
2013-08-11 07:13:00,44.0,43.0,-100.00,North,-999,0.0,0.0,95,-99.99,,,-99.99,,2013-08-11 14:13:00,
2013-08-11 07:23:00,45.0,43.0,-100.00,North,-999,0.0,0.0,95,-99.99,,,-99.99,,2013-08-11 14:23:00,
2013-08-11 07:33:00,45.0,43.0,-100.00,North,-999,0.0,0.0,95,-99.99,,,-99.99,,2013-08-11 14:33:00,
2013-08-11 07:45:00,46.0,44.0,-100.00,North,-999,0.0,0.0,92,-99.99,,,-99.99,,2013-08-11 14:45:00,
2013-08-11 07:57:00,46.0,44.0,-100.00,North,-999,0.0,0.0,92,-99.99,,,-99.99,,2013-08-11 14:57:00,
2013-08-11 08:02:00,46.0,44.0,-100.00,North,-999,0.0,0.0,91,-99.99,,,-99.99,,2013-08-11 15:02:00,
2013-08-11 08:12:00,46.0,44.0,-100.00,North,-999,0.0,0.0,91,-99.99,,,-99.99,,2013-08-11 15:12:00,
2013-08-11 08:23:00,46.0,43.0,-100.00,North,-999,0.0,0.0,89,-99.99,,,-99.99,,2013-08-11 15:23:00,
2013-08-11 08:34:00,46.0,43.0,-100.00,North,-999,0.0,0.0,89,-99.99,,,-99.99,,2013-08-11 15:34:00,
2013-08-11 08:45:00,48.0,44.0,-100.00,North,-999,0.0,0.0,85,-99.99,,,-99.99,,2013-08-11 15:45:00,
2013-08-11 09:03:00,49.0,44.0,-100.00,North,-999,0.0,0.0,82,-99.99,,,-99.99,,2013-08-11 16:03:00,
2013-08-11 09:23:00,50.0,44.0,-100.00,North,-999,0.0,0.0,79,-99.99,,,-99.99,,2013-08-11 16:23:00,
2013-08-11 09:34:00,53.0,44.0,-100.00,North,-999,0.0,0.0,71,-99.99,,,-99.99,,2013-08-11 16:34:00,
2013-08-11 09:44:00,57.0,44.0,-100.00,North,-999,0.0,0.0,61,-99.99,,,-99.99,,2013-08-11 16:44:00,
2013-08-11 09:56:00,57.0,44.0,-100.00,North,-999,0.0,0.0,61,-99.99,,,-99.99,,2013-08-11 16:56:00,
2013-08-11 10:04:00,59.0,42.0,-100.00,North,-999,0.0,0.0,55,-99.99,,,-99.99,,2013-08-11 17:04:00,
2013-08-11 10:24:00,59.0,41.0,-100.00,North,-999,0.0,0.0,51,-99.99,,,-99.99,,2013-08-11 17:24:00,
2013-08-11 10:32:00,61.0,41.0,-100.00,North,-999,0.0,0.0,48,-99.99,,,-99.99,,2013-08-11 17:32:00,
2013-08-11 10:44:00,61.0,41.0,-100.00,North,-999,0.0,0.0,48,-99.99,,,-99.99,,2013-08-11 17:44:00,
2013-08-11 11:04:00,64.0,40.0,-100.00,North,-999,0.0,0.0,41,-99.99,,,-99.99,,2013-08-11 18:04:00,
2013-08-11 11:15:00,66.0,40.0,-100.00,North,-999,0.0,0.0,38,-99.99,,,-99.99,,2013-08-11 18:15:00,
2013-08-11 11:22:00,66.0,40.0,-100.00,North,-999,0.0,0.0,38,-99.99,,,-99.99,,2013-08-11 18:22:00,
2013-08-11 11:36:00,68.0,40.0,-100.00,North,-999,0.0,0.0,36,-99.99,,,-99.99,,2013-08-11 18:36:00,
2013-08-11 11:45:00,69.0,40.0,-100.00,North,-999,0.0,0.0,35,-99.99,,,-99.99,,2013-08-11 18:45:00,
2013-08-11 11:55:00,69.0,40.0,-100.00,North,-999,0.0,0.0,35,-99.99,,,-99.99,,2013-08-11 18:55:00,
2013-08-11 12:04:00,70.0,41.0,-100.00,North,-999,0.0,0.0,34,-99.99,,,-99.99,,2013-08-11 19:04:00,
2013-08-11 12:12:00,71.0,41.0,-100.00,North,-999,0.0,0.0,34,-99.99,,,-99.99,,2013-08-11 19:12:00,
2013-08-11 12:23:00,71.0,41.0,-100.00,North,-999,0.0,0.0,34,-99.99,,,-99.99,,2013-08-11 19:23:00,
2013-08-11 12:32:00,71.0,41.0,-100.00,North,-999,0.0,0.0,34,-99.99,,,-99.99,,2013-08-11 19:32:00,
2013-08-11 12:46:00,71.0,41.0,-100.00,North,-999,0.0,0.0,34,-99.99,,,-99.99,,2013-08-11 19:46:00,
2013-08-11 12:58:00,71.0,41.0,-100.00,North,-999,0.0,0.0,34,-99.99,,,-99.99,,2013-08-11 19:58:00,
2013-08-11 13:23:00,74.0,41.0,-100.00,North,-999,0.0,0.0,31,-99.99,,,-99.99,,2013-08-11 20:23:00,
2013-08-11 13:45:00,76.0,43.0,-100.00,North,-999,0.0,0.0,30,-99.99,,,-99.99,,2013-08-11 20:45:00,
2013-08-11 14:02:00,77.0,41.0,-100.00,North,-999,0.0,0.0,28,-99.99,,,-99.99,,2013-08-11 21:02:00,
2013-08-11 14:11:00,77.0,41.0,-100.00,North,-999,0.0,0.0,28,-99.99,,,-99.99,,2013-08-11 21:11:00,
2013-08-11 14:23:00,77.0,41.0,-100.00,North,-999,0.0,0.0,27,-99.99,,,-99.99,,2013-08-11 21:23:00,
2013-08-11 14:33:00,77.0,41.0,-100.00,North,-999,0.0,0.0,27,-99.99,,,-99.99,,2013-08-11 21:33:00,
2013-08-11 14:56:00,79.0,40.0,-100.00,North,-999,0.0,0.0,25,-99.99,,,-99.99,,2013-08-11 21:56:00,
2013-08-11 15:03:00,79.0,40.0,-100.00,North,-999,0.0,0.0,25,-99.99,,,-99.99,,2013-08-11 22:03:00,
2013-08-11 15:13:00,79.0,40.0,-100.00,North,-999,0.0,0.0,24,-99.99,,,-99.99,,2013-08-11 22:13:00,
2013-08-11 15:23:00,79.0,40.0,-100.00,North,-999,0.0,0.0,24,-99.99,,,-99.99,,2013-08-11 22:23:00,
2013-08-11 15:33:00,79.0,39.0,-100.00,North,-999,0.0,0.0,24,-99.99,,,-99.99,,2013-08-11 22:33:00,
2013-08-11 15:44:00,78.0,39.0,-100.00,North,-999,0.0,0.0,24,-99.99,,,-99.99,,2013-08-11 22:44:00,
2013-08-11 15:56:00,78.0,39.0,-100.00,North,-999,0.0,0.0,24,-99.99,,,-99.99,,2013-08-11 22:56:00,
2013-08-11 16:24:00,79.0,39.0,-100.00,North,-999,0.0,0.0,24,-99.99,,,-99.99,,2013-08-11 23:24:00,
2013-08-11 16:32:00,81.0,40.0,-100.00,North,-999,0.0,0.0,24,-99.99,,,-99.99,,2013-08-11 23:32:00,
2013-08-11 16:44:00,80.0,40.0,-100.00,North,-999,0.0,0.0,24,-99.99,,,-99.99,,2013-08-11 23:44:00,
2013-08-11 17:03:00,78.0,39.0,-100.00,North,-999,0.0,0.0,25,-99.99,,,-99.99,,2013-08-12 00:03:00,
2013-08-11 17:13:00,78.0,39.0,-100.00,North,-999,0.0,0.0,25,-99.99,,,-99.99,,2013-08-12 00:13:00,
2013-08-11 17:22:00,75.0,39.0,-100.00,North,-999,0.0,0.0,27,-99.99,,,-99.99,,2013-08-12 00:22:00,
2013-08-11 17:34:00,76.0,40.0,-100.00,North,-999,0.0,0.0,28,-99.99,,,-99.99,,2013-08-12 00:34:00,
2013-08-11 18:03:00,72.0,39.0,-100.00,North,-999,0.0,0.0,30,-99.99,,,-99.99,,2013-08-12 01:03:00,
2013-08-11 18:13:00,71.0,40.0,-100.00,North,-999,0.0,0.0,32,-99.99,,,-99.99,,2013-08-12 01:13:00,
2013-08-11 18:23:00,71.0,40.0,-100.00,North,-999,0.0,0.0,32,-99.99,,,-99.99,,2013-08-12 01:23:00,
2013-08-11 18:34:00,70.0,39.0,-100.00,North,-999,0.0,0.0,32,-99.99,,,-99.99,,2013-08-12 01:34:00,
2013-08-11 18:43:00,70.0,41.0,-100.00,North,-999,0.0,0.0,34,-99.99,,,-99.99,,2013-08-12 01:43:00,
2013-08-11 19:23:00,69.0,41.0,-100.00,North,-999,0.0,0.0,36,-99.99,,,-99.99,,2013-08-12 02:23:00,
2013-08-11 19:34:00,68.0,41.0,-100.00,North,-999,0.0,0.0,37,-99.99,,,-99.99,,2013-08-12 02:34:00,
2013-08-11 20:03:00,67.0,41.0,-100.00,North,-999,0.0,0.0,38,-99.99,,,-99.99,,2013-08-12 03:03:00,
2013-08-11 20:23:00,66.0,41.0,-100.00,North,-999,0.0,0.0,39,-99.99,,,-99.99,,2013-08-12 03:23:00,
2013-08-11 20:34:00,65.0,41.0,-100.00,North,-999,0.0,0.0,41,-99.99,,,-99.99,,2013-08-12 03:34:00,
2013-08-11 21:02:00,63.0,41.0,-100.00,North,-999,0.0,0.0,45,-99.99,,,-99.99,,2013-08-12 04:02:00,
2013-08-11 21:12:00,61.0,41.0,-100.00,North,-999,0.0,0.0,47,-99.99,,,-99.99,,2013-08-12 04:12:00,
2013-08-11 21:22:00,61.0,41.0,-100.00,North,-999,0.0,0.0,47,-99.99,,,-99.99,,2013-08-12 04:22:00,
2013-08-11 21:32:00,60.0,41.0,-100.00,North,-999,0.0,0.0,49,-99.99,,,-99.99,,2013-08-12 04:32:00,
2013-08-11 21:43:00,59.0,41.0,-100.00,North,-999,0.0,0.0,52,-99.99,,,-99.99,,2013-08-12 04:43:00,
2013-08-11 21:52:00,59.0,41.0,-100.00,North,-999,0.0,0.0,52,-99.99,,,-99.99,,2013-08-12 04:52:00,
2013-08-11 22:02:00,57.0,41.0,-100.00,North,-999,0.0,0.0,54,-99.99,,,-99.99,,2013-08-12 05:02:00,
2013-08-11 22:11:00,56.0,41.0,-100.00,North,-999,0.0,0.0,56,-99.99,,,-99.99,,2013-08-12 05:11:00,
2013-08-11 22:22:00,56.0,41.0,-100.00,North,-999,0.0,0.0,56,-99.99,,,-99.99,,2013-08-12 05:22:00,
2013-08-11 22:32:00,56.0,41.0,-100.00,North,-999,0.0,0.0,58,-99.99,,,-99.99,,2013-08-12 05:32:00,
2013-08-11 22:43:00,55.0,41.0,-100.00,North,-999,0.0,0.0,60,-99.99,,,-99.99,,2013-08-12 05:43:00,
2013-08-11 22:52:00,55.0,41.0,-100.00,North,-999,0.0,0.0,60,-99.99,,,-99.99,,2013-08-12 05:52:00,
2013-08-11 23:01:00,55.0,42.0,-100.00,North,-999,0.0,0.0,61,-99.99,,,-99.99,,2013-08-12 06:01:00,
2013-08-11 23:22:00,55.0,42.0,-100.00,North,-999,0.0,0.0,62,-99.99,,,-99.99,,2013-08-12 06:22:00,
2013-08-11 23:32:00,55.0,42.0,-100.00,North,-999,0.0,0.0,63,-99.99,,,-99.99,,2013-08-12 06:32:00,
2013-08-11 23:42:00,56.0,44.0,-100.00,North,-999,0.0,0.0,66,-99.99,,,-99.99,,2013-08-12 06:42:00,